| time (UTC) | temp F | wind direction | speed MPH | gust MPH | rain 1hr in | rain 24hr in | rain mn in | humidity % | barometer mb |
| 20260508151814 | 54 | 259 | 3.0 | 4.0 | 0.00 | 0.00 | 0.00 | 56 | 1024.9 |
| 20260508151311 | 53 | 113 | 0.0 | 1.0 | 0.00 | 0.00 | 0.00 | 56 | 1025.3 |
| 20260508150808 | 53 | 93 | 2.0 | 3.0 | 0.00 | 0.00 | 0.00 | 56 | 1025.0 |
| 20260508150305 | 52 | 173 | 1.0 | 1.0 | 0.00 | 0.00 | 0.00 | 57 | 1025.0 |
| 20260508145801 | 52 | 141 | 1.0 | 1.0 | 0.00 | 0.00 | 0.00 | 59 | 1025.0 |
| 20260508145257 | 51 | 190 | 1.0 | 2.0 | 0.00 | 0.00 | 0.00 | 60 | 1025.1 |
| 20260508144754 | 50 | 189 | 0.0 | 2.0 | 0.00 | 0.00 | 0.00 | 62 | 1025.1 |
| 20260508144252 | 51 | 244 | 1.0 | 1.0 | 0.00 | 0.00 | 0.00 | 60 | 1025.1 |
| 20260508143749 | 50 | 202 | 1.0 | 1.0 | 0.00 | 0.00 | 0.00 | 59 | 1025.1 |
| 20260508143246 | 50 | 184 | 1.0 | 2.0 | 0.00 | 0.00 | 0.00 | 59 | 1025.0 |
| 20260508142742 | 48 | 224 | 0.0 | 0.0 | 0.00 | 0.00 | 0.00 | 61 | 1025.4 |
| 20260508142239 | 48 | 194 | 2.0 | 2.0 | 0.00 | 0.00 | 0.00 | 64 | 1025.1 |
| 20260508141736 | 48 | 261 | 2.0 | 2.0 | 0.00 | 0.00 | 0.00 | 65 | 1025.0 |
| 20260508141233 | 49 | 256 | 2.0 | 3.0 | 0.00 | 0.00 | 0.00 | 63 | 1025.3 |
| 20260508140730 | 49 | 191 | 0.0 | 1.0 | 0.00 | 0.00 | 0.00 | 64 | 1025.0 |
| 20260508140227 | 48 | 195 | 0.0 | 0.0 | 0.00 | 0.00 | 0.00 | 69 | 1025.0 |
| 20260508135723 | 46 | 170 | 0.0 | 1.0 | 0.00 | 0.00 | 0.00 | 71 | 1025.1 |
| 20260508135219 | 47 | 128 | 2.0 | 2.0 | 0.00 | 0.00 | 0.00 | 69 | 1024.9 |
| 20260508134715 | 47 | 108 | 0.0 | 1.0 | 0.00 | 0.00 | 0.00 | 69 | 1025.1 |
| 20260508134213 | 47 | 155 | 0.0 | 1.0 | 0.00 | 0.00 | 0.00 | 69 | 1025.1 |
| 20260508133709 | 46 | 122 | 1.0 | 2.0 | 0.00 | 0.00 | 0.00 | 70 | 1025.1 |
| 20260508133207 | 44 | 298 | 0.0 | 0.0 | 0.00 | 0.00 | 0.00 | 75 | 1024.9 |
| 20260508132705 | 43 | 344 | 2.0 | 2.0 | 0.00 | 0.00 | 0.00 | 76 | 1025.1 |
| 20260508132202 | 43 | 2 | 3.0 | 4.0 | 0.00 | 0.00 | 0.00 | 76 | 1024.9 |
| 20260508131657 | 42 | 343 | 3.0 | 4.0 | 0.00 | 0.00 | 0.00 | 78 | 1024.8 |
| 20260508131154 | 43 | 350 | 4.0 | 6.0 | 0.00 | 0.00 | 0.00 | 76 | 1024.5 |
| 20260508130650 | 43 | 5 | 4.0 | 6.0 | 0.00 | 0.00 | 0.00 | 76 | 1024.8 |
| 20260508130148 | 43 | 17 | 4.0 | 4.0 | 0.00 | 0.00 | 0.00 | 75 | 1024.9 |
| 20260508125643 | 42 | 3 | 2.0 | 3.0 | 0.00 | 0.00 | 0.00 | 74 | 1024.8 |
| 20260508125140 | 42 | 314 | 2.0 | 3.0 | 0.00 | 0.00 | 0.00 | 76 | 1024.5 |
| 20260508124638 | 41 | 308 | 2.0 | 3.0 | 0.00 | 0.00 | 0.00 | 78 | 1024.7 |
| 20260508124135 | 40 | 279 | 2.0 | 2.0 | 0.00 | 0.00 | 0.00 | 80 | 1024.8 |
| 20260508123633 | 40 | 215 | 2.0 | 2.0 | 0.00 | 0.00 | 0.00 | 80 | 1024.4 |
| 20260508123130 | 40 | 248 | 0.0 | 1.0 | 0.00 | 0.00 | 0.00 | 79 | 1024.5 |
| 20260508122626 | 40 | 290 | 0.0 | 0.0 | 0.00 | 0.00 | 0.00 | 78 | 1024.7 |
| 20260508122124 | 41 | 290 | 0.0 | 0.0 | 0.00 | 0.00 | 0.00 | 77 | 1024.4 |
| 20260508121622 | 41 | 291 | 0.0 | 1.0 | 0.00 | 0.00 | 0.00 | 77 | 1024.4 |
| 20260508121120 | 41 | 341 | 1.0 | 2.0 | 0.00 | 0.00 | 0.00 | 77 | 1024.3 |
| 20260508120617 | 41 | 340 | 1.0 | 2.0 | 0.00 | 0.00 | 0.00 | 76 | 1024.3 |
| 20260508120115 | 41 | 280 | 0.0 | 1.0 | 0.00 | 0.00 | 0.00 | 76 | 1024.3 |
| 20260508115612 | 41 | 275 | 0.0 | 1.0 | 0.00 | 0.00 | 0.00 | 76 | 1024.3 |
| 20260508115109 | 41 | 290 | 0.0 | 0.0 | 0.00 | 0.00 | 0.00 | 77 | 1023.9 |
| 20260508114606 | 41 | 291 | 0.0 | 1.0 | 0.00 | 0.00 | 0.00 | 79 | 1023.9 |
| 20260508114102 | 40 | 315 | 1.0 | 2.0 | 0.00 | 0.00 | 0.00 | 81 | 1024.1 |
| 20260508113559 | 40 | 264 | 0.0 | 0.0 | 0.00 | 0.00 | 0.00 | 81 | 1023.8 |
| 20260508113058 | 40 | 264 | 0.0 | 0.0 | 0.00 | 0.00 | 0.00 | 81 | 1023.9 |
| 20260508112553 | 40 | 264 | 0.0 | 0.0 | 0.00 | 0.00 | 0.00 | 80 | 1023.7 |
| 20260508112050 | 40 | 263 | 0.0 | 0.0 | 0.00 | 0.00 | 0.00 | 80 | 1024.1 |
| 20260508111547 | 40 | 263 | 0.0 | 0.0 | 0.00 | 0.00 | 0.00 | 79 | 1023.8 |
| 20260508111044 | 40 | 263 | 0.0 | 0.0 | 0.00 | 0.00 | 0.00 | 79 | 1023.9 |
| 20260508110542 | 41 | 277 | 0.0 | 0.0 | 0.00 | 0.00 | 0.00 | 78 | 1023.9 |
| 20260508110038 | 41 | 292 | 0.0 | 0.0 | 0.00 | 0.00 | 0.00 | 76 | 1023.8 |
| 20260508105533 | 41 | 292 | 0.0 | 0.0 | 0.00 | 0.00 | 0.00 | 76 | 1023.7 |
| 20260508105031 | 41 | 294 | 1.0 | 1.0 | 0.00 | 0.00 | 0.00 | 76 | 1023.8 |
| 20260508104528 | 42 | 351 | 1.0 | 1.0 | 0.00 | 0.00 | 0.00 | 76 | 1023.8 |
| 20260508104024 | 42 | 286 | 1.0 | 1.0 | 0.00 | 0.00 | 0.00 | 77 | 1023.8 |
| 20260508103521 | 42 | 299 | 2.0 | 2.0 | 0.00 | 0.00 | 0.00 | 76 | 1023.8 |
| 20260508103019 | 41 | 310 | 2.0 | 3.0 | 0.00 | 0.00 | 0.00 | 76 | 1023.8 |
| 20260508102517 | 41 | 290 | 2.0 | 3.0 | 0.00 | 0.00 | 0.00 | 76 | 1023.8 |
| 20260508102014 | 42 | 277 | 2.0 | 2.0 | 0.00 | 0.00 | 0.00 | 77 | 1023.9 |
| 20260508101511 | 42 | 5 | 1.0 | 2.0 | 0.00 | 0.00 | 0.00 | 76 | 1023.8 |
| 20260508101008 | 42 | 145 | 0.0 | 1.0 | 0.00 | 0.00 | 0.00 | 74 | 1023.7 |
| 20260508100507 | 42 | 177 | 1.0 | 1.0 | 0.00 | 0.00 | 0.00 | 74 | 1023.7 |
| 20260508100003 | 42 | 268 | 0.0 | 0.0 | 0.00 | 0.00 | 0.00 | 73 | 1023.6 |
| 20260508095500 | 42 | 269 | 0.0 | 0.0 | 0.00 | 0.00 | 0.00 | 73 | 1023.7 |
| 20260508094957 | 42 | 275 | 1.0 | 2.0 | 0.00 | 0.00 | 0.00 | 74 | 1023.5 |
| 20260508094454 | 42 | 292 | 0.0 | 1.0 | 0.00 | 0.00 | 0.00 | 75 | 1023.6 |
| 20260508093951 | 42 | 298 | 0.0 | 1.0 | 0.00 | 0.00 | 0.00 | 77 | 1023.6 |
| 20260508093448 | 42 | 296 | 1.0 | 1.0 | 0.00 | 0.00 | 0.00 | 77 | 1023.6 |
| 20260508092946 | 42 | 319 | 1.0 | 2.0 | 0.00 | 0.00 | 0.00 | 75 | 1023.5 |
| 20260508092443 | 43 | 358 | 2.0 | 2.0 | 0.00 | 0.00 | 0.00 | 75 | 1023.6 |
| 20260508091942 | 43 | 228 | 0.0 | 0.0 | 0.00 | 0.00 | 0.00 | 75 | 1023.3 |
| 20260508091438 | 43 | 228 | 0.0 | 0.0 | 0.00 | 0.00 | 0.00 | 74 | 1023.3 |
| 20260508090935 | 43 | 234 | 0.0 | 1.0 | 0.00 | 0.00 | 0.00 | 73 | 1023.8 |
| 20260508090434 | 43 | 236 | 1.0 | 1.0 | 0.00 | 0.00 | 0.00 | 73 | 1023.6 |
| 20260508085929 | 43 | 307 | 3.0 | 3.0 | 0.00 | 0.00 | 0.00 | 71 | 1023.3 |
| 20260508085426 | 44 | 346 | 4.0 | 4.0 | 0.00 | 0.00 | 0.00 | 68 | 1023.6 |
| 20260508084923 | 44 | 306 | 2.0 | 3.0 | 0.00 | 0.00 | 0.00 | 66 | 1023.5 |
| 20260508084419 | 45 | 266 | 2.0 | 3.0 | 0.00 | 0.00 | 0.00 | 66 | 1023.6 |
| 20260508083918 | 45 | 241 | 1.0 | 3.0 | 0.00 | 0.00 | 0.00 | 65 | 1023.5 |
| 20260508083415 | 45 | 235 | 2.0 | 6.0 | 0.00 | 0.00 | 0.00 | 67 | 1023.7 |
| 20260508082914 | 45 | 221 | 0.0 | 1.0 | 0.00 | 0.00 | 0.00 | 68 | 1023.6 |
| 20260508082412 | 44 | 217 | 1.0 | 3.0 | 0.00 | 0.00 | 0.00 | 72 | 1023.6 |
| 20260508081910 | 44 | 276 | 2.0 | 3.0 | 0.00 | 0.00 | 0.00 | 73 | 1023.5 |
| 20260508081406 | 44 | 233 | 0.0 | 1.0 | 0.00 | 0.00 | 0.00 | 72 | 1023.7 |
| 20260508080903 | 44 | 244 | 0.0 | 0.0 | 0.00 | 0.00 | 0.00 | 69 | 1023.7 |
| 20260508080401 | 45 | 249 | 0.0 | 0.0 | 0.00 | 0.00 | 0.00 | 66 | 1023.6 |
| 20260508075857 | 45 | 254 | 0.0 | 0.0 | 0.00 | 0.00 | 0.00 | 66 | 1023.5 |
| 20260508075354 | 45 | 275 | 0.0 | 0.0 | 0.00 | 0.00 | 0.00 | 67 | 1023.3 |
| 20260508074852 | 45 | 305 | 1.0 | 1.0 | 0.00 | 0.00 | 0.00 | 66 | 1023.6 |
| 20260508074349 | 46 | 285 | 2.0 | 2.0 | 0.00 | 0.00 | 0.00 | 67 | 1023.5 |
| 20260508073846 | 46 | 287 | 1.0 | 2.0 | 0.00 | 0.00 | 0.00 | 65 | 1023.6 |
| 20260508073344 | 46 | 321 | 3.0 | 3.0 | 0.00 | 0.00 | 0.00 | 62 | 1023.6 |
| 20260508072840 | 47 | 262 | 1.0 | 2.0 | 0.00 | 0.00 | 0.00 | 61 | 1023.6 |
| 20260508072336 | 47 | 252 | 2.0 | 4.0 | 0.00 | 0.00 | 0.00 | 60 | 1023.7 |
| 20260508071834 | 47 | 268 | 2.0 | 3.0 | 0.00 | 0.00 | 0.00 | 59 | 1023.7 |
| 20260508071332 | 47 | 272 | 3.0 | 3.0 | 0.00 | 0.00 | 0.00 | 62 | 1023.8 |
| 20260508070829 | 47 | 279 | 3.0 | 4.0 | 0.00 | 0.00 | 0.00 | 64 | 1023.7 |
| 20260508070328 | 46 | 244 | 1.0 | 2.0 | 0.00 | 0.00 | 0.00 | 63 | 1023.6 |
| 20260508065825 | 46 | 251 | 1.0 | 1.0 | 0.00 | 0.00 | 0.00 | 65 | 1023.6 |
| 20260508065323 | 46 | 255 | 0.0 | 0.0 | 0.00 | 0.00 | 0.00 | 65 | 1023.7 |
| 20260508064821 | 46 | 260 | 0.0 | 0.0 | 0.00 | 0.00 | 0.00 | 64 | 1023.7 |
| 20260508064318 | 47 | 284 | 0.0 | 1.0 | 0.00 | 0.00 | 0.00 | 64 | 1023.6 |
| 20260508063815 | 47 | 255 | 0.0 | 1.0 | 0.00 | 0.00 | 0.00 | 62 | 1023.6 |
| 20260508063313 | 48 | 339 | 2.0 | 3.0 | 0.00 | 0.00 | 0.00 | 62 | 1023.8 |
| 20260508062810 | 48 | 257 | 2.0 | 3.0 | 0.00 | 0.00 | 0.00 | 62 | 1023.7 |
| 20260508062308 | 48 | 260 | 3.0 | 3.0 | 0.00 | 0.00 | 0.00 | 62 | 1023.5 |
| 20260508061804 | 48 | 276 | 4.0 | 4.0 | 0.00 | 0.00 | 0.00 | 61 | 1023.7 |
| 20260508061302 | 48 | 269 | 2.0 | 3.0 | 0.00 | 0.00 | 0.00 | 63 | 1023.6 |
| 20260508060758 | 48 | 257 | 2.0 | 2.0 | 0.00 | 0.00 | 0.00 | 63 | 1023.5 |
| 20260508060256 | 48 | 250 | 0.0 | 1.0 | 0.00 | 0.00 | 0.00 | 62 | 1023.3 |
| 20260508055751 | 48 | 262 | 1.0 | 1.0 | 0.00 | 0.00 | 0.00 | 62 | 1023.3 |
| 20260508055248 | 49 | 277 | 0.0 | 0.0 | 0.00 | 0.00 | 0.00 | 59 | 1023.1 |
| 20260508054745 | 49 | 334 | 1.0 | 3.0 | 0.00 | 0.00 | 0.00 | 56 | 1023.2 |
| 20260508054243 | 48 | 8 | 3.0 | 3.0 | 0.00 | 0.00 | 0.00 | 60 | 1023.1 |
| 20260508053740 | 48 | 356 | 2.0 | 3.0 | 0.00 | 0.00 | 0.00 | 61 | 1023.1 |
| 20260508053237 | 49 | 23 | 1.0 | 1.0 | 0.00 | 0.00 | 0.00 | 62 | 1023.1 |
| 20260508052734 | 50 | 262 | 0.0 | 0.0 | 0.00 | 0.00 | 0.00 | 56 | 1023.0 |
| 20260508052231 | 49 | 297 | 1.0 | 2.0 | 0.00 | 0.00 | 0.00 | 56 | 1023.0 |
| 20260508051727 | 50 | 257 | 1.0 | 1.0 | 0.00 | 0.00 | 0.00 | 59 | 1023.1 |
| 20260508051223 | 50 | 270 | 0.0 | 0.0 | 0.00 | 0.00 | 0.00 | 55 | 1023.1 |
| 20260508050719 | 51 | 193 | 1.0 | 1.0 | 0.00 | 0.00 | 0.00 | 56 | 1023.1 |
| 20260508050217 | 50 | 297 | 2.0 | 2.0 | 0.00 | 0.00 | 0.00 | 53 | 1022.9 |
| 20260508045712 | 51 | 292 | 0.0 | 0.0 | 0.00 | 0.00 | 0.00 | 55 | 1023.1 |
| 20260508045210 | 51 | 292 | 0.0 | 1.0 | 0.00 | 0.00 | 0.00 | 53 | 1023.1 |
| 20260508044707 | 51 | 284 | 1.0 | 1.0 | 0.00 | 0.00 | 0.00 | 54 | 1023.1 |
| 20260508044204 | 50 | 286 | 4.0 | 4.0 | 0.00 | 0.00 | 0.00 | 58 | 1023.1 |
| 20260508043659 | 50 | 271 | 3.0 | 3.0 | 0.00 | 0.00 | 0.00 | 61 | 1023.1 |
| 20260508043158 | 51 | 248 | 3.0 | 3.0 | 0.00 | 0.00 | 0.00 | 61 | 1023.0 |
| 20260508042654 | 53 | 247 | 2.0 | 4.0 | 0.00 | 0.00 | 0.00 | 57 | 1023.0 |
| 20260508042151 | 52 | 206 | 1.0 | 1.0 | 0.00 | 0.00 | 0.00 | 49 | 1023.3 |
| 20260508041647 | 51 | 132 | 1.0 | 2.0 | 0.00 | 0.00 | 0.00 | 53 | 1023.2 |
| 20260508041145 | 51 | 10 | 1.0 | 3.0 | 0.00 | 0.00 | 0.00 | 58 | 1023.0 |
| 20260508040641 | 51 | 6 | 4.0 | 6.0 | 0.00 | 0.00 | 0.00 | 60 | 1023.0 |
| 20260508040139 | 53 | 8 | 3.0 | 3.0 | 0.00 | 0.00 | 0.00 | 52 | 1023.2 |
| 20260508035636 | 54 | 13 | 1.0 | 3.0 | 0.00 | 0.00 | 0.00 | 45 | 1023.0 |
| 20260508035133 | 55 | 26 | 3.0 | 6.0 | 0.00 | 0.00 | 0.00 | 43 | 1022.6 |
| 20260508034630 | 55 | 284 | 4.0 | 8.0 | 0.00 | 0.00 | 0.00 | 42 | 1023.0 |
| 20260508034127 | 55 | 266 | 3.0 | 6.0 | 0.00 | 0.00 | 0.00 | 44 | 1023.1 |
| 20260508033624 | 55 | 223 | 1.0 | 3.0 | 0.00 | 0.00 | 0.00 | 44 | 1023.2 |
| 20260508033122 | 55 | 345 | 4.0 | 6.0 | 0.00 | 0.00 | 0.00 | 46 | 1022.7 |
| 20260508032618 | 56 | 335 | 6.0 | 7.0 | 0.00 | 0.00 | 0.00 | 40 | 1022.7 |
| 20260508032116 | 57 | 358 | 4.0 | 6.0 | 0.00 | 0.00 | 0.00 | 40 | 1022.9 |
| 20260508031613 | 57 | 310 | 6.0 | 8.0 | 0.00 | 0.00 | 0.00 | 40 | 1022.6 |
| 20260508031109 | 57 | 327 | 6.0 | 8.0 | 0.00 | 0.00 | 0.00 | 40 | 1022.6 |
| 20260508030606 | 57 | 316 | 5.0 | 7.0 | 0.00 | 0.00 | 0.00 | 41 | 1022.7 |
| 20260508030104 | 56 | 318 | 4.0 | 4.0 | 0.00 | 0.00 | 0.00 | 42 | 1022.5 |
| 20260508025559 | 57 | 319 | 3.0 | 4.0 | 0.00 | 0.00 | 0.00 | 41 | 1022.6 |
| 20260508025057 | 58 | 323 | 2.0 | 2.0 | 0.00 | 0.00 | 0.00 | 39 | 1022.7 |
| 20260508024553 | 58 | 332 | 1.0 | 1.0 | 0.00 | 0.00 | 0.00 | 40 | 1022.4 |
| 20260508024050 | 58 | 293 | 2.0 | 3.0 | 0.00 | 0.00 | 0.00 | 39 | 1022.5 |
| 20260508023546 | 59 | 324 | 3.0 | 4.0 | 0.00 | 0.00 | 0.00 | 38 | 1022.2 |
| 20260508023044 | 60 | 310 | 5.0 | 7.0 | 0.00 | 0.00 | 0.00 | 36 | 1022.5 |
| 20260508022539 | 60 | 292 | 3.0 | 4.0 | 0.00 | 0.00 | 0.00 | 36 | 1022.5 |
| 20260508022037 | 61 | 303 | 4.0 | 6.0 | 0.00 | 0.00 | 0.00 | 35 | 1022.2 |
| 20260508021532 | 62 | 307 | 3.0 | 6.0 | 0.00 | 0.00 | 0.00 | 34 | 1022.2 |
| 20260508021028 | 62 | 276 | 3.0 | 3.0 | 0.00 | 0.00 | 0.00 | 32 | 1022.1 |
| 20260508020526 | 63 | 290 | 3.0 | 3.0 | 0.00 | 0.00 | 0.00 | 31 | 1022.2 |
| 20260508020024 | 63 | 252 | 4.0 | 6.0 | 0.00 | 0.00 | 0.00 | 31 | 1022.1 |
| 20260508015521 | 64 | 272 | 3.0 | 8.0 | 0.00 | 0.00 | 0.00 | 29 | 1022.1 |
| 20260508015018 | 65 | 268 | 8.0 | 9.0 | 0.00 | 0.00 | 0.00 | 29 | 1022.1 |
| 20260508014514 | 65 | 292 | 8.0 | 11.0 | 0.00 | 0.00 | 0.00 | 29 | 1022.2 |
| 20260508014010 | 65 | 278 | 5.0 | 8.0 | 0.00 | 0.00 | 0.00 | 28 | 1022.5 |
| 20260508013507 | 66 | 270 | 7.0 | 8.0 | 0.00 | 0.00 | 0.00 | 27 | 1022.1 |
| 20260508013005 | 66 | 314 | 6.0 | 8.0 | 0.00 | 0.00 | 0.00 | 27 | 1022.0 |
| 20260508012501 | 66 | 269 | 4.0 | 6.0 | 0.00 | 0.00 | 0.00 | 27 | 1022.1 |
| 20260508011958 | 66 | 293 | 4.0 | 6.0 | 0.00 | 0.00 | 0.00 | 27 | 1022.0 |
| 20260508011456 | 66 | 284 | 5.0 | 16.0 | 0.00 | 0.00 | 0.00 | 27 | 1022.2 |
| 20260508010953 | 66 | 247 | 10.0 | 16.0 | 0.00 | 0.00 | 0.00 | 26 | 1022.1 |
| 20260508010450 | 66 | 283 | 6.0 | 10.0 | 0.00 | 0.00 | 0.00 | 26 | 1022.1 |
| 20260508005948 | 67 | 273 | 10.0 | 13.0 | 0.00 | 0.00 | 0.00 | 26 | 1022.2 |
| 20260508005444 | 67 | 275 | 9.0 | 10.0 | 0.00 | 0.00 | 0.00 | 26 | 1022.2 |
| 20260508004941 | 67 | 268 | 7.0 | 9.0 | 0.00 | 0.00 | 0.00 | 26 | 1022.4 |
| 20260508004437 | 67 | 294 | 7.0 | 9.0 | 0.00 | 0.00 | 0.00 | 26 | 1022.4 |
| 20260508003934 | 67 | 280 | 11.0 | 14.0 | 0.00 | 0.00 | 0.00 | 27 | 1022.0 |
| 20260508003430 | 66 | 304 | 13.0 | 18.0 | 0.00 | 0.00 | 0.00 | 26 | 1022.4 |
| 20260508002928 | 66 | 305 | 6.0 | 8.0 | 0.00 | 0.00 | 0.00 | 27 | 1022.6 |
| 20260508002424 | 66 | 321 | 8.0 | 11.0 | 0.00 | 0.00 | 0.00 | 27 | 1022.5 |
| 20260508001920 | 66 | 266 | 2.0 | 4.0 | 0.00 | 0.00 | 0.00 | 26 | 1022.5 |
| 20260508001417 | 65 | 257 | 2.0 | 2.0 | 0.00 | 0.00 | 0.00 | 30 | 1022.6 |
| 20260508000913 | 65 | 2 | 6.0 | 7.0 | 0.00 | 0.00 | 0.00 | 31 | 1022.7 |
| 20260508000412 | 65 | 18 | 4.0 | 7.0 | 0.00 | 0.00 | 0.00 | 31 | 1022.6 |
| 20260507235906 | 66 | 11 | 2.0 | 3.0 | 0.00 | 0.00 | 0.00 | 29 | 1022.6 |
| 20260507235403 | 66 | 262 | 3.0 | 6.0 | 0.00 | 0.00 | 0.00 | 29 | 1022.6 |
| 20260507234900 | 65 | 292 | 7.0 | 8.0 | 0.00 | 0.00 | 0.00 | 28 | 1022.5 |
| 20260507234359 | 65 | 279 | 5.0 | 7.0 | 0.00 | 0.00 | 0.00 | 29 | 1022.9 |
| 20260507233854 | 66 | 287 | 4.0 | 11.0 | 0.00 | 0.00 | 0.00 | 28 | 1023.0 |
| 20260507233351 | 66 | 248 | 4.0 | 6.0 | 0.00 | 0.00 | 0.00 | 28 | 1022.6 |
| 20260507232849 | 66 | 315 | 4.0 | 9.0 | 0.00 | 0.00 | 0.00 | 28 | 1023.0 |
| 20260507232345 | 66 | 335 | 6.0 | 14.0 | 0.00 | 0.00 | 0.00 | 29 | 1022.9 |
| 20260507231843 | 66 | 315 | 8.0 | 9.0 | 0.00 | 0.00 | 0.00 | 29 | 1023.0 |
| 20260507231339 | 65 | 298 | 12.0 | 13.0 | 0.00 | 0.00 | 0.00 | 29 | 1023.1 |
| 20260507230835 | 65 | 336 | 3.0 | 9.0 | 0.00 | 0.00 | 0.00 | 28 | 1023.0 |
| 20260507230333 | 65 | 304 | 15.0 | 18.0 | 0.00 | 0.00 | 0.00 | 29 | 1023.1 |
| 20260507225832 | 65 | 11 | 11.0 | 17.0 | 0.00 | 0.00 | 0.00 | 30 | 1023.2 |
| 20260507225329 | 66 | 286 | 5.0 | 13.0 | 0.00 | 0.00 | 0.00 | 27 | 1023.5 |
| 20260507224825 | 66 | 316 | 4.0 | 6.0 | 0.00 | 0.00 | 0.00 | 27 | 1023.1 |
| 20260507224322 | 66 | 343 | 3.0 | 10.0 | 0.00 | 0.00 | 0.00 | 29 | 1023.1 |
| 20260507223818 | 67 | 298 | 11.0 | 18.0 | 0.00 | 0.00 | 0.00 | 27 | 1023.3 |
| 20260507223314 | 68 | 293 | 5.0 | 9.0 | 0.00 | 0.00 | 0.00 | 26 | 1023.3 |
| 20260507222812 | 67 | 283 | 5.0 | 10.0 | 0.00 | 0.00 | 0.00 | 27 | 1023.6 |
| 20260507222308 | 67 | 254 | 3.0 | 11.0 | 0.00 | 0.00 | 0.00 | 27 | 1023.3 |
| 20260507221805 | 68 | 252 | 9.0 | 11.0 | 0.00 | 0.00 | 0.00 | 27 | 1023.5 |
| 20260507221301 | 67 | 271 | 5.0 | 7.0 | 0.00 | 0.00 | 0.00 | 29 | 1023.2 |
| 20260507220757 | 66 | 338 | 13.0 | 16.0 | 0.00 | 0.00 | 0.00 | 29 | 1023.3 |
| 20260507220256 | 66 | 294 | 2.0 | 7.0 | 0.00 | 0.00 | 0.00 | 29 | 1023.6 |
| 20260507215752 | 66 | 357 | 6.0 | 11.0 | 0.00 | 0.00 | 0.00 | 28 | 1023.5 |
| 20260507215250 | 65 | 344 | 6.0 | 9.0 | 0.00 | 0.00 | 0.00 | 31 | 1023.5 |
| 20260507214746 | 65 | 357 | 9.0 | 17.0 | 0.00 | 0.00 | 0.00 | 31 | 1023.5 |
| 20260507214244 | 65 | 278 | 13.0 | 16.0 | 0.00 | 0.00 | 0.00 | 30 | 1023.6 |
| 20260507213739 | 65 | 319 | 7.0 | 11.0 | 0.00 | 0.00 | 0.00 | 30 | 1023.8 |
| 20260507213236 | 65 | 284 | 9.0 | 15.0 | 0.00 | 0.00 | 0.00 | 30 | 1023.9 |
| 20260507212732 | 65 | 328 | 5.0 | 10.0 | 0.00 | 0.00 | 0.00 | 30 | 1023.7 |
| 20260507212229 | 66 | 253 | 11.0 | 17.0 | 0.00 | 0.00 | 0.00 | 29 | 1024.1 |
| 20260507211726 | 67 | 291 | 12.0 | 16.0 | 0.00 | 0.00 | 0.00 | 29 | 1023.7 |
| 20260507211222 | 67 | 1 | 6.0 | 8.0 | 0.00 | 0.00 | 0.00 | 29 | 1023.6 |
| 20260507210719 | 66 | 194 | 4.0 | 8.0 | 0.00 | 0.00 | 0.00 | 28 | 1023.8 |
| 20260507210216 | 66 | 201 | 6.0 | 15.0 | 0.00 | 0.00 | 0.00 | 28 | 1023.8 |
| 20260507205712 | 66 | 273 | 6.0 | 13.0 | 0.00 | 0.00 | 0.00 | 29 | 1023.7 |
| 20260507205209 | 65 | 339 | 3.0 | 9.0 | 0.00 | 0.00 | 0.00 | 31 | 1024.1 |
| 20260507204705 | 65 | 260 | 10.0 | 11.0 | 0.00 | 0.00 | 0.00 | 29 | 1023.9 |
| 20260507204203 | 65 | 253 | 9.0 | 16.0 | 0.00 | 0.00 | 0.00 | 30 | 1024.1 |
| 20260507203701 | 64 | 226 | 8.0 | 14.0 | 0.00 | 0.00 | 0.00 | 30 | 1023.8 |
| 20260507203158 | 64 | 246 | 8.0 | 16.0 | 0.00 | 0.00 | 0.00 | 29 | 1023.8 |
| 20260507202653 | 64 | 220 | 10.0 | 10.0 | 0.00 | 0.00 | 0.00 | 32 | 1024.2 |
| 20260507202150 | 65 | 114 | 4.0 | 4.0 | 0.00 | 0.00 | 0.00 | 28 | 1024.1 |
| 20260507201645 | 63 | 196 | 1.0 | 4.0 | 0.00 | 0.00 | 0.00 | 30 | 1024.2 |
| 20260507201142 | 63 | 126 | 5.0 | 7.0 | 0.00 | 0.00 | 0.00 | 29 | 1024.1 |
| 20260507200638 | 64 | 119 | 5.0 | 6.0 | 0.00 | 0.00 | 0.00 | 29 | 1024.3 |
| 20260507200135 | 64 | 92 | 1.0 | 3.0 | 0.00 | 0.00 | 0.00 | 28 | 1024.1 |
| 20260507195631 | 63 | 73 | 1.0 | 2.0 | 0.00 | 0.00 | 0.00 | 31 | 1024.1 |
| 20260507195128 | 63 | 89 | 1.0 | 3.0 | 0.00 | 0.00 | 0.00 | 31 | 1024.5 |
| 20260507194626 | 62 | 112 | 2.0 | 2.0 | 0.00 | 0.00 | 0.00 | 31 | 1024.4 |
| 20260507194120 | 62 | 155 | 1.0 | 2.0 | 0.00 | 0.00 | 0.00 | 32 | 1024.5 |
| 20260507193618 | 62 | 204 | 3.0 | 4.0 | 0.00 | 0.00 | 0.00 | 34 | 1024.5 |
| 20260507193115 | 61 | 215 | 2.0 | 4.0 | 0.00 | 0.00 | 0.00 | 34 | 1024.7 |
| 20260507192611 | 61 | 187 | 8.0 | 9.0 | 0.00 | 0.00 | 0.00 | 31 | 1024.5 |
| 20260507192108 | 63 | 204 | 9.0 | 14.0 | 0.00 | 0.00 | 0.00 | 33 | 1024.7 |
| 20260507191603 | 62 | 222 | 4.0 | 7.0 | 0.00 | 0.00 | 0.00 | 30 | 1024.7 |
| 20260507191101 | 61 | 232 | 4.0 | 8.0 | 0.00 | 0.00 | 0.00 | 36 | 1024.5 |
| 20260507190558 | 60 | 209 | 11.0 | 16.0 | 0.00 | 0.00 | 0.00 | 34 | 1024.7 |
| 20260507190057 | 59 | 196 | 8.0 | 14.0 | 0.00 | 0.00 | 0.00 | 36 | 1024.5 |
| 20260507185555 | 59 | 211 | 9.0 | 9.0 | 0.00 | 0.00 | 0.00 | 36 | 1024.8 |
| 20260507185051 | 59 | 200 | 11.0 | 14.0 | 0.00 | 0.00 | 0.00 | 35 | 1024.9 |
| 20260507184549 | 59 | 184 | 6.0 | 11.0 | 0.00 | 0.00 | 0.00 | 38 | 1024.9 |
| 20260507184047 | 58 | 213 | 8.0 | 11.0 | 0.00 | 0.00 | 0.00 | 41 | 1024.9 |
| 20260507183542 | 59 | 208 | 8.0 | 10.0 | 0.00 | 0.00 | 0.00 | 35 | 1024.9 |
| 20260507183040 | 58 | 215 | 8.0 | 16.0 | 0.00 | 0.00 | 0.00 | 35 | 1025.1 |
| 20260507182536 | 58 | 202 | 9.0 | 10.0 | 0.00 | 0.00 | 0.00 | 37 | 1025.1 |
| 20260507182032 | 58 | 208 | 6.0 | 10.0 | 0.00 | 0.00 | 0.00 | 35 | 1024.9 |
| 20260507181529 | 57 | 186 | 10.0 | 11.0 | 0.00 | 0.00 | 0.00 | 37 | 1025.1 |
| 20260507181025 | 57 | 187 | 8.0 | 9.0 | 0.00 | 0.00 | 0.00 | 34 | 1025.0 |
| 20260507180522 | 57 | 177 | 10.0 | 14.0 | 0.00 | 0.00 | 0.00 | 34 | 1025.3 |
| 20260507180019 | 58 | 198 | 12.0 | 15.0 | 0.00 | 0.00 | 0.00 | 37 | 1025.5 |
| 20260507175515 | 57 | 197 | 12.0 | 14.0 | 0.00 | 0.00 | 0.00 | 40 | 1025.3 |
| 20260507175013 | 57 | 202 | 9.0 | 14.0 | 0.00 | 0.00 | 0.00 | 39 | 1025.3 |
| 20260507174510 | 56 | 187 | 11.0 | 13.0 | 0.00 | 0.00 | 0.00 | 38 | 1025.6 |
| 20260507174007 | 55 | 205 | 12.0 | 19.0 | 0.00 | 0.00 | 0.00 | 37 | 1025.5 |
| 20260507173504 | 55 | 193 | 10.0 | 15.0 | 0.00 | 0.00 | 0.00 | 38 | 1025.5 |
| 20260507173001 | 56 | 190 | 11.0 | 16.0 | 0.00 | 0.00 | 0.00 | 41 | 1025.4 |
| 20260507172457 | 55 | 190 | 11.0 | 16.0 | 0.00 | 0.00 | 0.00 | 36 | 1025.6 |
| 20260507171954 | 55 | 210 | 16.0 | 18.0 | 0.00 | 0.00 | 0.00 | 35 | 1025.4 |
| 20260507171449 | 55 | 186 | 15.0 | 17.0 | 0.00 | 0.00 | 0.00 | 35 | 1025.6 |
| 20260507170947 | 54 | 208 | 13.0 | 15.0 | 0.00 | 0.00 | 0.00 | 37 | 1025.7 |
| 20260507170444 | 54 | 191 | 12.0 | 15.0 | 0.00 | 0.00 | 0.00 | 40 | 1025.7 |
| 20260507165940 | 53 | 186 | 13.0 | 18.0 | 0.00 | 0.00 | 0.00 | 38 | 1025.7 |
| 20260507165436 | 54 | 201 | 15.0 | 17.0 | 0.00 | 0.00 | 0.00 | 39 | 1025.7 |
| 20260507164932 | 53 | 193 | 8.0 | 15.0 | 0.00 | 0.00 | 0.00 | 40 | 1025.7 |
| 20260507164429 | 53 | 213 | 14.0 | 17.0 | 0.00 | 0.00 | 0.00 | 38 | 1025.9 |
| 20260507163926 | 53 | 177 | 13.0 | 16.0 | 0.00 | 0.00 | 0.00 | 37 | 1025.9 |
| 20260507163423 | 53 | 193 | 13.0 | 16.0 | 0.00 | 0.00 | 0.00 | 40 | 1025.7 |
| 20260507162920 | 52 | 211 | 10.0 | 17.0 | 0.00 | 0.00 | 0.00 | 43 | 1026.1 |
| 20260507162415 | 52 | 199 | 12.0 | 18.0 | 0.00 | 0.00 | 0.00 | 44 | 1025.9 |
| 20260507161913 | 51 | 214 | 13.0 | 15.0 | 0.00 | 0.00 | 0.00 | 44 | 1026.2 |
| 20260507161409 | 51 | 203 | 8.0 | 14.0 | 0.00 | 0.00 | 0.00 | 49 | 1026.2 |
| 20260507160906 | 51 | 185 | 14.0 | 15.0 | 0.00 | 0.00 | 0.00 | 42 | 1026.0 |
| 20260507160402 | 51 | 189 | 13.0 | 15.0 | 0.00 | 0.00 | 0.00 | 46 | 1026.2 |
| 20260507155858 | 50 | 192 | 11.0 | 13.0 | 0.00 | 0.00 | 0.00 | 49 | 1026.1 |
| 20260507155354 | 50 | 188 | 13.0 | 14.0 | 0.00 | 0.00 | 0.00 | 47 | 1026.1 |
| 20260507154851 | 50 | 189 | 12.0 | 14.0 | 0.00 | 0.00 | 0.00 | 48 | 1026.2 |
| 20260507154348 | 50 | 203 | 5.0 | 9.0 | 0.00 | 0.00 | 0.00 | 46 | 1026.2 |
| 20260507153845 | 49 | 188 | 8.0 | 11.0 | 0.00 | 0.00 | 0.00 | 46 | 1026.3 |
| 20260507153341 | 48 | 181 | 9.0 | 10.0 | 0.00 | 0.00 | 0.00 | 48 | 1026.5 |
| 20260507152838 | 48 | 165 | 5.0 | 10.0 | 0.00 | 0.00 | 0.00 | 50 | 1026.5 |
| 20260507152334 | 47 | 116 | 5.0 | 9.0 | 0.00 | 0.00 | 0.00 | 50 | 1026.5 |